サルタ の空港の天気 - METARとTAF

サルタ空港 ( SASA / SLA ) - アルゼンチン サルタ州、Salta
飛行場実況気象(Metar)
観測時間08/05 05:00 ART (08/05 08:00 UTC)
風向・風速南 2m/s
視程10km以上
天気現象
なし
気温10℃
湿度82%
気圧1017hPa
METARSASA 050800Z 18003KT CAVOK 10/07 Q1017
過去の天気等 Google飛行場航空写真 Wunderground天気予報

過去48時間のMETAR

飛行場予報(TAF)
発表時間: 8/05 02:00 ART (8/05 05:00 UTC)
予報対象時間: 5日3時 ART ~ 6日3時 ART
風向・風速不定 2m/s
視程10km以上
なし
5日12時 ART ~ 5日14時 ART に徐々に
風向・風速北東 6m/s
5日19時 ART ~ 5日21時 ART に徐々に
風向・風速西 3m/s
TAF SASA 050500Z 0506/0606 VRB03KT CAVOK TX29/0518Z TN10/0510Z
BECMG 0515/0517 05012KT
BECMG 0522/0524 27005KT